Time;durP1;ratioP1;P1;durP2;ratioP2;P2;SDS_P1;SDS_P2;PMS_P1;PMS_P2;Temp;Humidity;BMP_temperature;BMP_pressure;BME280_temperature;BME280_humidity;BME280_pressure;Samples;Min_cycle;Max_cycle;Signal;HPM_P1;HPM_P2
2023/09/26 00:04:49;;;;;;;9.48;8.73;;;11.00;99.90;;;11.63;100.00;98541.50;10427395;28;20217;-85
2023/09/26 00:09:52;;;;;;;9.93;9.10;;;11.00;99.90;;;11.43;100.00;98544.47;10432738;28;20800;-83
2023/09/26 00:14:56;;;;;;;9.73;8.93;;;10.90;99.90;;;11.40;100.00;98551.94;10428028;28;20720;-81
2023/09/26 00:20:04;;;;;;;10.43;9.60;;;10.80;99.90;;;11.45;100.00;98540.34;10424869;28;20251;-85
2023/09/26 00:25:10;;;;;;;9.57;8.77;;;10.90;99.90;;;11.61;100.00;98535.38;10428650;28;20254;-84
2023/09/26 00:30:14;;;;;;;9.60;8.65;;;10.90;99.90;;;11.66;100.00;98535.69;10430050;28;20892;-81
2023/09/26 00:35:20;;;;;;;8.13;7.53;;;10.90;99.90;;;11.56;100.00;98539.34;10425057;28;20308;-81
2023/09/26 00:40:24;;;;;;;8.93;8.23;;;10.90;99.90;;;11.66;100.00;98539.13;10433071;28;20244;-82
2023/09/26 00:45:27;;;;;;;7.97;7.47;;;11.00;99.90;;;11.69;100.00;98541.88;10431224;28;20229;-84
2023/09/26 00:50:33;;;;;;;7.63;7.00;;;10.90;99.90;;;11.64;100.00;98533.03;10430164;28;20295;-84
2023/09/26 00:55:38;;;;;;;7.93;6.80;;;10.80;99.90;;;11.62;100.00;98537.19;10434130;28;20228;-83
2023/09/26 01:00:42;;;;;;;7.93;7.22;;;10.80;99.90;;;11.55;100.00;98541.81;10425348;28;20229;-86
2023/09/26 01:05:47;;;;;;;6.72;6.22;;;10.70;99.90;;;11.53;100.00;98540.81;10432014;28;20790;-84
2023/09/26 01:10:50;;;;;;;6.55;6.03;;;10.70;99.90;;;11.42;100.00;98532.47;10429301;28;20226;-83
2023/09/26 01:15:54;;;;;;;6.20;5.80;;;10.50;99.90;;;11.29;100.00;98517.97;10436167;28;20217;-84
2023/09/26 01:21:01;;;;;;;7.28;6.53;;;10.40;99.90;;;11.17;100.00;98518.06;10433694;28;20951;-83
2023/09/26 01:26:20;;;;;;;8.23;7.53;;;10.40;99.90;;;11.15;100.00;98528.97;10433097;28;20221;-85
2023/09/26 01:31:24;;;;;;;8.65;7.95;;;10.40;99.90;;;11.17;100.00;98528.28;10432112;28;20225;-83
2023/09/26 01:36:28;;;;;;;7.28;6.68;;;10.40;99.90;;;11.20;100.00;98532.72;10424752;28;20983;-86
2023/09/26 01:41:35;;;;;;;6.65;6.15;;;10.40;99.90;;;11.18;100.00;98522.38;10433395;28;20238;-83
2023/09/26 01:46:43;;;;;;;7.45;6.85;;;10.30;99.90;;;11.11;100.00;98520.22;10435948;28;20242;-83
2023/09/26 01:51:49;;;;;;;7.38;6.75;;;10.30;99.90;;;11.10;100.00;98521.00;10444652;28;20624;-81
2023/09/26 01:56:54;;;;;;;7.13;6.53;;;10.20;99.90;;;10.98;100.00;98521.06;10461520;28;20233;-81
2023/09/26 02:01:58;;;;;;;6.57;6.07;;;10.20;99.90;;;10.88;100.00;98530.63;10458126;28;20237;-81
2023/09/26 02:07:01;;;;;;;6.78;6.18;;;10.00;99.90;;;10.77;100.00;98522.22;10459804;28;20216;-79
2023/09/26 02:12:07;;;;;;;7.60;6.90;;;9.90;99.90;;;10.58;100.00;98523.53;10459046;28;20236;-82
2023/09/26 02:17:11;;;;;;;9.73;8.82;;;9.80;99.90;;;10.69;100.00;98531.03;10447575;28;20245;-80
2023/09/26 02:22:16;;;;;;;9.45;8.73;;;9.90;99.90;;;10.64;100.00;98522.16;10440182;28;20229;-83
2023/09/26 02:27:21;;;;;;;8.80;8.10;;;10.00;99.90;;;10.71;100.00;98520.13;10439909;28;20226;-83
2023/09/26 02:32:24;;;;;;;7.97;7.22;;;10.00;99.90;;;10.78;100.00;98522.31;10438601;28;20241;-82
2023/09/26 02:37:28;;;;;;;7.47;6.88;;;10.00;99.90;;;10.67;100.00;98517.25;10430645;28;20240;-81
2023/09/26 02:42:33;;;;;;;7.63;7.03;;;9.70;99.90;;;10.58;100.00;98517.53;10428236;28;20221;-84
2023/09/26 02:47:37;;;;;;;7.00;6.43;;;9.70;99.90;;;10.55;100.00;98504.53;10438944;28;20226;-83
2023/09/26 02:52:43;;;;;;;6.93;6.43;;;9.70;99.90;;;10.50;100.00;98499.16;10439146;28;20688;-84
2023/09/26 02:57:48;;;;;;;7.33;6.73;;;9.70;99.90;;;10.42;100.00;98512.19;10433004;28;20222;-84
2023/09/26 03:02:51;;;;;;;8.40;7.70;;;9.60;99.90;;;10.42;100.00;98509.63;10433202;28;20302;-83
2023/09/26 03:07:55;;;;;;;10.07;9.10;;;9.60;99.90;;;10.36;100.00;98513.53;10428719;28;20232;-83
2023/09/26 03:13:00;;;;;;;9.83;8.97;;;9.60;99.90;;;10.43;100.00;98512.28;10430924;28;20304;-83
2023/09/26 03:18:06;;;;;;;8.75;8.15;;;9.70;99.90;;;10.46;100.00;98517.59;10427767;28;20263;-81
2023/09/26 03:23:09;;;;;;;9.73;8.80;;;9.70;99.90;;;10.29;100.00;98519.00;10427773;28;20232;-84
2023/09/26 03:28:14;;;;;;;8.53;7.83;;;9.60;99.90;;;10.31;100.00;98514.88;10433950;28;20217;-83
2023/09/26 03:33:18;;;;;;;9.07;8.37;;;9.60;99.90;;;10.26;100.00;98516.19;10432263;28;20257;-83
2023/09/26 03:38:21;;;;;;;9.60;8.80;;;9.50;99.90;;;10.22;100.00;98519.34;10425359;28;20268;-84
2023/09/26 03:43:26;;;;;;;9.00;8.30;;;9.50;99.90;;;10.27;100.00;98519.66;10428683;28;20256;-84
2023/09/26 03:48:30;;;;;;;8.53;7.83;;;9.50;99.90;;;10.28;100.00;98511.25;10428433;28;20229;-83
2023/09/26 03:53:34;;;;;;;8.23;7.50;;;9.50;99.90;;;10.19;100.00;98514.00;10429563;28;20237;-83
2023/09/26 03:58:39;;;;;;;8.30;7.70;;;9.40;99.90;;;10.14;100.00;98523.03;10432158;28;20878;-82
2023/09/26 04:03:46;;;;;;;7.70;7.20;;;9.30;99.90;;;10.09;100.00;98526.91;10428723;28;20230;-82
2023/09/26 04:08:49;;;;;;;7.87;7.27;;;9.30;99.90;;;10.04;100.00;98525.69;10428050;28;20252;-83
2023/09/26 04:13:54;;;;;;;7.93;7.33;;;9.20;99.90;;;9.90;100.00;98525.66;10421266;28;20225;-79
2023/09/26 04:18:57;;;;;;;8.17;7.47;;;9.00;99.90;;;9.91;100.00;98529.97;10417128;28;20252;-79
2023/09/26 04:24:04;;;;;;;7.73;7.13;;;9.10;99.90;;;9.84;100.00;98522.66;10426410;28;20259;-80
2023/09/26 04:29:10;;;;;;;9.20;8.50;;;9.00;99.90;;;9.78;100.00;98518.78;10423724;28;20245;-80
2023/09/26 04:34:13;;;;;;;8.80;8.03;;;9.00;99.90;;;9.69;100.00;98501.16;10421668;28;20229;-80
2023/09/26 04:39:18;;;;;;;8.40;7.70;;;9.00;99.90;;;9.75;100.00;98516.88;10425237;28;20294;-79
2023/09/26 04:44:22;;;;;;;8.80;8.10;;;8.90;99.90;;;9.69;99.83;98508.81;10423957;28;20225;-79
2023/09/26 04:49:26;;;;;;;8.23;7.53;;;8.80;99.90;;;9.57;100.00;98495.19;10426750;28;20222;-78
2023/09/26 04:54:29;;;;;;;9.70;9.00;;;8.80;99.90;;;9.63;100.00;98495.59;10422190;28;20225;-80
2023/09/26 04:59:34;;;;;;;9.27;8.57;;;8.90;99.90;;;9.60;100.00;98496.28;10422038;28;20229;-80
2023/09/26 05:04:37;;;;;;;10.67;9.67;;;8.90;99.90;;;9.66;100.00;98490.72;10420152;28;20244;-79
2023/09/26 05:09:40;;;;;;;11.17;10.23;;;9.00;99.90;;;9.59;100.00;98498.75;10423078;28;20221;-77
2023/09/26 05:14:45;;;;;;;10.50;9.60;;;9.00;99.90;;;9.54;100.00;98502.63;10422580;28;20234;-78
2023/09/26 05:19:48;;;;;;;10.37;9.53;;;8.90;99.90;;;9.66;100.00;98506.03;10426505;28;20757;-80
2023/09/26 05:24:52;;;;;;;9.17;8.47;;;9.00;99.90;;;9.74;100.00;98507.47;10422905;28;20235;-78
2023/09/26 05:29:58;;;;;;;9.20;8.50;;;9.00;99.90;;;9.78;100.00;98512.00;10425490;28;20316;-80
2023/09/26 05:35:01;;;;;;;9.70;8.90;;;9.00;99.90;;;9.82;100.00;98514.00;10421667;28;20307;-79
2023/09/26 05:40:09;;;;;;;10.43;9.50;;;9.00;99.90;;;9.87;100.00;98520.31;10432825;28;20229;-78
2023/09/26 05:45:15;;;;;;;10.97;9.87;;;9.10;99.90;;;10.02;100.00;98527.28;10429752;28;20659;-79
2023/09/26 05:50:18;;;;;;;10.80;10.00;;;9.20;99.90;;;10.05;100.00;98520.72;10438652;28;20667;-78
2023/09/26 05:55:21;;;;;;;9.90;9.10;;;9.30;99.90;;;10.16;100.00;98513.81;10434386;28;20233;-79
2023/09/26 06:00:26;;;;;;;9.50;8.80;;;9.40;99.90;;;10.25;100.00;98513.56;10427978;28;20763;-79
2023/09/26 06:05:30;;;;;;;9.33;8.63;;;9.40;99.90;;;10.38;100.00;98511.94;10426477;28;20367;-78
2023/09/26 06:10:33;;;;;;;9.03;8.33;;;9.50;99.90;;;10.73;98.69;98510.00;10431546;28;20227;-79
2023/09/26 06:15:41;;;;;;;8.45;7.75;;;9.80;99.90;;;11.23;94.96;98505.66;10433523;28;20320;-81
2023/09/26 06:20:45;;;;;;;8.52;7.93;;;10.40;99.90;;;11.84;91.77;98505.22;10436638;28;20249;-80
2023/09/26 06:25:58;;;;;;;7.63;6.82;;;10.90;99.90;;;12.25;88.03;98509.50;10433839;28;20232;-77
2023/09/26 06:31:06;;;;;;;7.95;7.35;;;11.10;99.90;;;12.95;85.82;98513.69;10447018;28;20576;-78
2023/09/26 06:36:15;;;;;;;7.15;6.55;;;11.60;99.90;;;13.64;82.63;98514.19;10433188;28;20256;-80
2023/09/26 06:41:18;;;;;;;7.60;6.93;;;12.00;99.90;;;14.41;79.24;98498.63;10446561;28;20309;-78
2023/09/26 06:46:23;;;;;;;8.40;7.70;;;12.60;99.90;;;15.30;75.02;98492.84;10451807;28;20224;-79
2023/09/26 06:51:26;;;;;;;8.32;7.55;;;13.40;99.90;;;15.49;73.01;98492.94;10450186;28;21369;-79
2023/09/26 06:56:30;;;;;;;9.65;8.77;;;13.80;99.90;;;15.48;75.31;98486.03;10446186;28;20290;-79
2023/09/26 07:01:34;;;;;;;10.20;9.30;;;14.20;99.90;;;15.63;74.82;98488.44;10431189;28;20841;-79
2023/09/26 07:06:38;;;;;;;10.52;9.75;;;14.50;99.90;;;15.71;75.44;98494.88;10428541;28;20225;-80
2023/09/26 07:11:41;;;;;;;10.50;9.57;;;14.60;99.90;;;15.83;75.07;98485.97;10423309;28;20228;-79
2023/09/26 07:16:47;;;;;;;11.05;10.05;;;14.60;99.90;;;16.21;73.57;98482.53;10424743;28;20264;-80
2023/09/26 07:21:50;;;;;;;9.80;8.90;;;15.20;99.90;;;16.67;71.06;98492.31;10426228;28;20244;-81
2023/09/26 07:26:53;;;;;;;10.05;9.18;;;15.40;99.90;;;17.08;68.54;98494.13;10421496;28;20229;-80
2023/09/26 07:31:58;;;;;;;10.95;9.88;;;16.00;99.90;;;17.09;68.60;98488.13;10430006;28;20986;-79
2023/09/26 07:37:01;;;;;;;11.25;10.15;;;15.90;99.90;;;17.14;69.70;98501.25;10428019;28;20229;-79
2023/09/26 07:42:05;;;;;;;10.70;9.73;;;16.00;99.90;;;17.40;69.25;98498.81;10426034;28;21724;-81
2023/09/26 07:47:09;;;;;;;10.85;9.85;;;16.30;99.90;;;17.48;69.51;98505.16;10418115;28;20582;-80
2023/09/26 07:52:13;;;;;;;11.07;10.07;;;16.60;99.90;;;17.54;69.76;98493.41;10426938;28;20222;-82
2023/09/26 07:57:16;;;;;;;10.88;9.90;;;16.60;99.90;;;17.79;71.41;98481.44;10421850;28;20232;-80
2023/09/26 08:02:21;;;;;;;10.25;9.35;;;17.00;99.90;;;18.36;67.89;98489.63;10423167;28;20339;-82
2023/09/26 08:07:24;;;;;;;9.82;9.13;;;17.50;99.90;;;18.66;67.27;98481.22;10422821;28;20246;-79
2023/09/26 08:12:29;;;;;;;9.15;8.30;;;17.80;99.90;;;18.85;66.11;98473.25;10423135;28;20316;-82
2023/09/26 08:17:34;;;;;;;8.85;8.25;;;18.30;99.90;;;19.24;67.15;98475.44;10420816;28;20233;-81
2023/09/26 08:22:39;;;;;;;8.18;7.57;;;18.60;99.90;;;19.70;65.53;98471.75;10424072;28;20227;-81
2023/09/26 08:27:42;;;;;;;7.88;7.18;;;19.00;99.90;;;20.16;63.75;98472.25;10426985;28;20217;-81
2023/09/26 08:32:47;;;;;;;8.63;7.78;;;19.60;99.90;;;20.15;63.57;98466.19;10419497;28;20253;-81
2023/09/26 08:37:50;;;;;;;9.23;8.43;;;19.50;99.90;;;20.35;62.81;98465.88;10414754;28;20279;-80
2023/09/26 08:42:58;;;;;;;8.00;7.40;;;19.70;99.90;;;20.25;65.69;98470.78;10419731;28;20237;-80
2023/09/26 08:48:03;;;;;;;8.43;7.72;;;19.60;99.90;;;20.33;64.99;98470.13;10422140;28;20232;-81
2023/09/26 08:53:06;;;;;;;7.78;7.18;;;19.70;99.90;;;20.90;62.16;98462.19;10422383;28;20236;-80
2023/09/26 08:58:10;;;;;;;8.18;7.53;;;20.40;99.90;;;20.93;62.55;98460.53;10418588;28;20225;-78
2023/09/26 09:03:15;;;;;;;7.05;6.53;;;20.40;99.90;;;21.49;60.82;98456.72;10421129;28;20220;-81
2023/09/26 09:08:21;;;;;;;7.00;6.40;;;21.00;99.90;;;22.02;58.23;98450.13;10422527;28;20235;-79
2023/09/26 09:13:32;;;;;;;7.15;6.18;;;21.50;99.90;;;22.20;58.19;98446.16;10426495;28;20290;-82
2023/09/26 09:18:38;;;;;;;7.22;6.65;;;21.70;99.90;;;22.34;57.17;98439.50;10431274;28;20254;-83
2023/09/26 09:23:47;;;;;;;6.43;5.93;;;21.80;99.90;;;22.43;57.54;98439.72;10428330;28;20232;-81
2023/09/26 09:28:52;;;;;;;5.72;5.22;;;21.90;99.90;;;22.72;57.11;98426.34;10430925;28;20226;-81
2023/09/26 09:33:58;;;;;;;6.72;6.22;;;22.10;99.90;;;22.86;56.40;98427.47;10430595;28;20225;-82
2023/09/26 09:39:04;;;;;;;6.57;5.90;;;22.40;99.90;;;22.74;57.26;98421.16;10424538;28;20252;-81
2023/09/26 09:44:07;;;;;;;6.95;6.40;;;22.20;99.90;;;22.76;56.59;98422.06;10427184;28;20233;-82
2023/09/26 09:49:13;;;;;;;6.43;5.80;;;22.10;99.90;;;22.30;58.34;98408.19;10441409;28;20226;-82
2023/09/26 09:54:19;;;;;;;5.45;5.00;;;21.70;99.90;;;22.85;57.18;98415.25;10435882;28;20287;-80
2023/09/26 09:59:28;;;;;;;6.40;5.90;;;22.40;99.90;;;22.96;56.77;98406.78;10430636;28;20238;-80
2023/09/26 10:11:16;;;;;;;5.97;5.50;;;22.70;99.90;;;23.33;55.44;98388.25;10431113;28;20249;-80
2023/09/26 10:16:19;;;;;;;6.95;6.35;;;22.80;99.90;;;23.05;56.29;98399.13;10429832;28;20241;-81
2023/09/26 10:21:25;;;;;;;7.00;6.40;;;22.40;99.90;;;23.03;57.08;98393.00;10433836;28;20225;-82
2023/09/26 10:26:29;;;;;;;6.30;5.80;;;22.60;99.90;;;23.33;55.61;98387.38;10431383;28;20224;-80
2023/09/26 10:31:34;;;;;;;5.15;4.65;;;22.80;99.90;;;23.46;54.29;98384.06;10437503;28;20217;-80
2023/09/26 10:36:38;;;;;;;6.30;5.80;;;22.80;99.70;;;23.07;56.07;98387.00;10447386;28;20229;-79
2023/09/26 10:41:45;;;;;;;6.18;5.78;;;22.50;99.90;;;23.44;55.15;98384.94;10453634;28;20726;-79
2023/09/26 10:47:09;;;;;;;6.97;6.38;;;22.80;99.90;;;23.43;54.24;98383.16;10457820;28;20228;-78
2023/09/26 10:52:13;;;;;;;7.32;6.72;;;22.90;99.20;;;23.25;54.30;98374.22;10425607;28;20315;-80
2023/09/26 10:57:20;;;;;;;5.88;5.38;;;22.90;99.10;;;23.37;53.81;98369.16;10422543;28;20236;-79
2023/09/26 11:02:24;;;;;;;4.78;4.47;;;22.80;98.90;;;23.52;52.50;98368.53;10433310;28;20242;-80
2023/09/26 11:07:28;;;;;;;4.38;4.07;;;23.00;97.60;;;23.48;52.75;98371.06;10425126;28;20222;-80
2023/09/26 11:12:33;;;;;;;4.10;3.80;;;22.90;97.80;;;23.52;52.72;98367.63;10423887;28;20230;-81
2023/09/26 11:17:37;;;;;;;5.05;4.65;;;23.00;97.90;;;23.62;52.84;98359.09;10421439;28;20226;-80
2023/09/26 11:22:48;;;;;;;4.85;4.45;;;23.10;98.20;;;23.55;53.29;98357.22;10422841;28;20616;-81
2023/09/26 11:27:53;;;;;;;4.22;3.83;;;23.00;98.30;;;23.61;52.61;98352.13;10417432;28;20228;-82
2023/09/26 11:32:56;;;;;;;4.38;3.97;;;23.10;97.80;;;23.74;52.37;98343.59;10423605;28;20236;-80
2023/09/26 11:37:59;;;;;;;4.25;3.85;;;23.10;97.50;;;23.57;50.85;98343.34;10428243;28;20225;-83
2023/09/26 11:43:06;;;;;;;4.20;3.80;;;23.10;96.30;;;23.68;51.41;98333.06;10426244;28;22167;-80
2023/09/26 11:48:10;;;;;;;4.15;3.85;;;23.10;96.50;;;23.76;51.20;98323.63;10425266;28;20238;-81
2023/09/26 11:53:13;;;;;;;3.83;3.53;;;23.20;96.70;;;23.77;51.17;98333.19;10421975;28;20226;-79
2023/09/26 11:58:18;;;;;;;3.80;3.50;;;23.10;96.50;;;23.75;51.51;98329.72;10414772;28;20221;-79
2023/09/26 12:03:21;;;;;;;3.70;3.50;;;23.10;97.40;;;23.59;51.13;98323.38;10414273;28;20221;-79
2023/09/26 12:08:26;;;;;;;3.28;3.08;;;22.90;96.60;;;23.93;50.07;98322.94;10417231;28;20230;-79
2023/09/26 12:13:32;;;;;;;3.03;2.67;;;23.10;96.20;;;23.92;50.29;98324.69;10415221;28;20283;-78
2023/09/26 12:18:35;;;;;;;3.00;2.80;;;23.30;95.90;;;24.03;49.42;98320.44;10411920;28;20311;-79
2023/09/26 12:23:40;;;;;;;2.72;2.53;;;23.30;95.30;;;24.02;48.74;98312.59;10413236;28;20229;-81
2023/09/26 12:28:45;;;;;;;3.40;3.10;;;23.30;94.70;;;24.02;49.89;98312.59;10420120;28;20806;-80
2023/09/26 12:33:48;;;;;;;3.40;2.90;;;23.30;95.50;;;24.14;47.20;98304.88;10416312;28;20225;-80
2023/09/26 12:38:55;;;;;;;3.17;2.80;;;23.40;93.70;;;24.17;47.65;98304.03;10427460;28;20737;-80
2023/09/26 12:44:01;;;;;;;2.80;2.50;;;23.40;94.20;;;24.10;47.41;98297.88;10414237;28;20232;-80
2023/09/26 12:49:08;;;;;;;3.92;2.50;;;23.40;94.00;;;24.07;46.36;98297.88;10406306;28;20304;-80
2023/09/26 12:54:14;;;;;;;2.50;2.30;;;23.30;92.90;;;24.12;47.25;98295.28;10414770;28;20218;-78
2023/09/26 12:59:19;;;;;;;2.60;2.40;;;23.30;93.50;;;24.04;46.45;98287.38;10415940;28;20225;-79
2023/09/26 13:04:23;;;;;;;2.60;2.40;;;23.30;92.80;;;24.36;44.37;98277.25;10412999;28;20674;-78
2023/09/26 13:09:27;;;;;;;2.67;2.42;;;23.50;91.40;;;24.39;45.71;98274.66;10415082;28;20624;-77
2023/09/26 13:14:31;;;;;;;2.53;2.33;;;23.60;92.80;;;24.24;45.00;98272.78;10412990;28;20221;-79
2023/09/26 13:19:35;;;;;;;2.30;2.20;;;23.50;91.80;;;24.13;45.86;98268.31;10409764;28;20230;-79
2023/09/26 13:24:38;;;;;;;2.88;2.40;;;23.40;92.10;;;24.08;44.10;98270.88;10412161;28;20230;-78
2023/09/26 13:29:43;;;;;;;2.80;2.60;;;23.40;91.10;;;24.00;45.11;98262.94;10417330;28;20714;-78
2023/09/26 13:34:47;;;;;;;2.50;2.40;;;23.40;91.40;;;24.10;45.14;98263.06;10425610;28;20597;-78
2023/09/26 13:39:50;;;;;;;2.58;2.30;;;23.30;91.60;;;23.95;45.59;98263.75;10420731;28;20286;-79
2023/09/26 13:44:54;;;;;;;2.50;2.28;;;23.20;92.00;;;24.04;45.78;98258.66;10427158;28;20217;-81
2023/09/26 13:49:58;;;;;;;2.55;2.45;;;23.20;92.40;;;24.16;45.86;98252.66;10425077;28;20275;-80
2023/09/26 13:55:02;;;;;;;2.40;2.20;;;23.40;92.10;;;24.23;45.72;98249.22;10424000;28;20228;-80
2023/09/26 14:00:09;;;;;;;2.55;2.25;;;23.40;92.30;;;24.16;46.17;98248.31;10426326;28;22194;-81
2023/09/26 14:05:12;;;;;;;2.60;2.40;;;23.40;92.80;;;24.12;46.41;98248.25;10425625;28;20221;-81
2023/09/26 14:10:22;;;;;;;2.50;2.17;;;23.30;92.50;;;24.06;46.44;98249.06;10419213;28;20231;-81
2023/09/26 14:15:29;;;;;;;2.72;2.05;;;23.30;92.30;;;24.12;46.31;98243.91;10446207;28;20229;-82
2023/09/26 14:20:40;;;;;;;2.22;2.10;;;23.30;92.70;;;24.18;46.55;98246.59;10433349;28;20225;-80
2023/09/26 14:25:52;;;;;;;2.50;2.25;;;23.40;92.60;;;24.26;46.46;98244.91;10435605;28;20225;-79
2023/09/26 14:30:58;;;;;;;2.40;2.25;;;23.40;92.60;;;24.32;45.89;98237.97;10440484;28;20298;-80
2023/09/26 14:36:02;;;;;;;2.35;2.08;;;23.50;92.50;;;24.18;46.97;98240.47;10446573;28;20690;-79
2023/09/26 14:46:59;;;;;;;3.00;2.25;;;23.20;93.20;;;24.20;46.19;98234.41;10409233;28;20224;-81
2023/09/26 14:52:12;;;;;;;2.47;2.30;;;23.30;92.50;;;24.09;46.36;98241.25;10444785;28;20252;-81
2023/09/26 14:57:22;;;;;;;2.50;2.08;;;23.20;92.80;;;24.11;46.57;98239.56;10431395;28;20218;-82
2023/09/26 15:02:36;;;;;;;3.35;2.45;;;23.20;93.00;;;24.10;47.19;98253.47;10431742;28;20228;-80
2023/09/26 15:07:40;;;;;;;2.75;2.20;;;23.20;93.30;;;24.31;46.73;98244.97;10432476;28;20225;-80
2023/09/26 15:12:50;;;;;;;2.63;2.42;;;23.40;93.10;;;23.99;47.69;98244.66;10430369;28;20232;-81
2023/09/26 15:18:01;;;;;;;2.15;1.90;;;23.10;93.70;;;23.96;48.72;98249.88;10427927;28;20809;-81
2023/09/26 15:23:09;;;;;;;2.50;2.30;;;23.00;94.20;;;23.83;48.89;98247.09;10426897;28;20222;-81
2023/09/26 15:28:13;;;;;;;3.80;2.50;;;22.90;94.30;;;23.88;48.28;98247.16;10439533;28;20236;-80
2023/09/26 15:33:19;;;;;;;4.15;2.55;;;22.90;93.90;;;23.82;48.30;98242.75;10437964;28;20229;-79
2023/09/26 15:38:22;;;;;;;2.33;2.13;;;22.90;93.90;;;23.85;48.33;98243.66;10431574;28;20217;-79
2023/09/26 15:43:26;;;;;;;2.38;2.10;;;22.90;94.50;;;23.86;49.75;98253.22;10435923;28;20311;-80
2023/09/26 15:48:30;;;;;;;2.40;2.20;;;22.80;95.10;;;23.97;49.04;98241.16;10438140;28;20589;-80
2023/09/26 15:53:35;;;;;;;2.28;2.17;;;22.90;94.90;;;23.88;49.44;98231.50;10435854;28;20275;-80
2023/09/26 15:58:39;;;;;;;2.08;1.98;;;22.90;95.00;;;23.66;51.51;98239.91;10429203;28;20237;-78
2023/09/26 16:03:45;;;;;;;2.83;2.50;;;22.80;96.60;;;23.45;52.27;98240.56;10431241;28;20670;-81
2023/09/26 16:08:48;;;;;;;3.00;2.72;;;22.50;97.00;;;23.30;53.30;98247.34;10431866;28;20230;-80
2023/09/26 16:13:52;;;;;;;5.70;5.13;;;22.30;97.90;;;23.00;54.91;98239.09;10431687;28;20227;-79
2023/09/26 16:18:57;;;;;;;18.67;15.45;;;22.00;99.20;;;22.77;55.81;98237.00;10429355;28;20225;-80
2023/09/26 16:24:02;;;;;;;7.70;6.20;;;21.80;99.40;;;22.58;58.15;98242.81;10428730;28;21906;-79
2023/09/26 16:29:05;;;;;;;8.73;6.57;;;21.60;99.90;;;22.29;59.50;98245.81;10428136;28;20241;-79
2023/09/26 16:34:10;;;;;;;8.93;6.20;;;21.30;99.90;;;22.00;62.15;98248.72;10426142;28;20780;-78
2023/09/26 16:39:14;;;;;;;5.65;4.60;;;21.00;99.90;;;21.72;64.93;98262.97;10431183;28;20237;-78
2023/09/26 16:44:17;;;;;;;3.53;2.95;;;20.70;99.90;;;21.46;66.36;98265.06;10422361;28;20224;-79
2023/09/26 16:49:22;;;;;;;3.53;3.22;;;20.40;99.90;;;21.23;67.24;98266.25;10426066;28;20345;-79
2023/09/26 16:54:25;;;;;;;3.72;3.42;;;20.20;99.90;;;20.92;68.32;98270.78;10426098;28;20268;-79
2023/09/26 16:59:30;;;;;;;3.65;3.40;;;19.90;99.90;;;20.68;69.68;98269.34;10424151;28;20221;-79
2023/09/26 17:04:35;;;;;;;3.40;3.05;;;19.70;99.90;;;20.43;70.34;98274.75;10428150;28;20801;-82
2023/09/26 17:09:39;;;;;;;3.58;3.08;;;19.40;99.90;;;20.25;70.67;98283.84;10431704;28;20260;-79
2023/09/26 17:14:42;;;;;;;3.58;3.13;;;19.20;99.90;;;20.02;72.87;98293.63;10429546;28;20230;-80
2023/09/26 17:19:47;;;;;;;3.00;2.70;;;19.00;99.90;;;19.76;73.61;98290.34;10430702;28;20297;-80
2023/09/26 17:24:50;;;;;;;3.75;3.45;;;18.80;99.90;;;19.64;73.78;98294.28;10426465;28;20323;-81
2023/09/26 17:30:00;;;;;;;4.70;4.25;;;18.60;99.90;;;19.43;76.35;98304.91;10429923;28;20321;-80
2023/09/26 17:35:06;;;;;;;4.85;4.45;;;18.40;99.90;;;19.21;76.90;98312.06;10437107;28;20233;-80
2023/09/26 17:40:10;;;;;;;4.80;4.15;;;18.20;99.90;;;19.05;77.69;98317.59;10445833;28;20225;-80
2023/09/26 17:45:14;;;;;;;3.80;3.42;;;18.10;99.90;;;18.92;77.90;98323.25;10439676;28;20224;-80
2023/09/26 17:50:27;;;;;;;4.80;4.32;;;17.90;99.90;;;18.71;79.10;98318.19;10432904;28;20732;-80
2023/09/26 17:55:30;;;;;;;3.80;3.50;;;17.80;99.90;;;18.53;80.75;98324.53;10427941;28;20319;-79
2023/09/26 18:00:33;;;;;;;4.53;4.13;;;17.50;99.90;;;18.28;82.16;98335.75;10439971;28;20996;-80
2023/09/26 18:05:38;;;;;;;4.07;3.65;;;17.30;99.90;;;18.15;82.76;98338.78;10434898;28;20294;-80
2023/09/26 18:10:42;;;;;;;3.83;3.63;;;17.20;99.90;;;17.96;83.54;98345.88;10433456;28;20262;-79
2023/09/26 18:15:45;;;;;;;5.15;4.10;;;17.00;99.90;;;17.84;84.25;98350.63;10435835;28;20225;-78
2023/09/26 18:20:56;;;;;;;3.85;3.65;;;16.90;99.90;;;17.68;84.73;98353.41;10449943;28;20305;-83
2023/09/26 18:26:00;;;;;;;4.25;3.85;;;16.70;99.90;;;17.60;85.48;98358.31;10443266;28;20233;-80
2023/09/26 18:31:05;;;;;;;4.72;4.40;;;16.60;99.90;;;17.42;86.23;98355.03;10432618;28;20251;-78
2023/09/26 18:36:10;;;;;;;4.53;4.22;;;16.50;99.90;;;17.38;86.63;98360.91;10434554;28;20226;-78
2023/09/26 18:41:13;;;;;;;4.70;4.05;;;16.50;99.90;;;17.30;87.18;98366.66;10430685;28;20248;-80
2023/09/26 18:46:16;;;;;;;4.57;4.22;;;16.40;99.90;;;17.19;88.06;98379.97;10427466;28;20224;-78
2023/09/26 18:51:21;;;;;;;5.03;4.50;;;16.20;99.90;;;17.04;88.92;98383.72;10425025;28;20271;-80
2023/09/26 18:56:24;;;;;;;4.32;3.92;;;16.00;99.90;;;16.90;89.48;98387.44;10427297;28;20233;-79
2023/09/26 19:01:28;;;;;;;4.63;4.22;;;16.00;99.90;;;16.61;91.06;98387.09;10422129;28;20289;-78
2023/09/26 19:06:34;;;;;;;4.32;4.03;;;15.60;99.90;;;16.55;90.87;98399.75;10425823;28;20308;-79
2023/09/26 19:11:42;;;;;;;4.47;4.18;;;15.50;99.90;;;16.51;90.75;98396.97;10424728;28;20230;-79
2023/09/26 19:16:45;;;;;;;5.13;4.72;;;15.50;99.90;;;16.36;90.74;98398.06;10424248;28;20224;-79
2023/09/26 19:21:50;;;;;;;5.38;4.93;;;15.40;99.90;;;16.16;92.63;98398.91;10435596;28;20229;-80
2023/09/26 19:26:53;;;;;;;5.30;4.90;;;15.20;99.90;;;16.13;92.24;98403.94;10424675;28;20249;-79
2023/09/26 19:31:56;;;;;;;5.28;4.97;;;15.20;99.90;;;16.03;93.50;98402.66;10422293;28;20288;-80
2023/09/26 19:37:01;;;;;;;5.95;5.05;;;15.20;99.90;;;16.03;93.54;98405.25;10424644;28;21005;-81
2023/09/26 19:42:05;;;;;;;5.90;5.50;;;15.10;99.90;;;15.95;93.74;98401.44;10428138;28;20226;-81
2023/09/26 19:47:08;;;;;;;5.15;4.72;;;15.00;99.90;;;15.68;94.70;98404.53;10417179;28;20978;-79
2023/09/26 19:52:13;;;;;;;5.55;5.15;;;14.80;99.90;;;15.68;94.79;98398.47;10426199;28;20229;-79
2023/09/26 19:57:16;;;;;;;6.15;5.00;;;14.80;99.90;;;15.68;94.98;98414.84;10426308;28;20279;-78
2023/09/26 20:02:20;;;;;;;7.28;6.68;;;14.80;99.90;;;15.60;96.00;98415.28;10428790;28;20240;-80
2023/09/26 20:07:25;;;;;;;6.65;6.22;;;14.80;99.90;;;15.46;97.34;98405.19;10427765;28;20221;-78
2023/09/26 20:12:28;;;;;;;6.57;6.07;;;14.70;99.90;;;15.41;98.01;98408.38;10421717;28;20593;-79
2023/09/26 20:17:32;;;;;;;6.60;6.10;;;14.60;99.90;;;15.45;97.64;98410.28;10426531;28;20229;-79
2023/09/26 20:22:37;;;;;;;5.97;5.53;;;14.60;99.90;;;15.39;97.36;98421.16;10428918;28;20223;-81
2023/09/26 20:27:40;;;;;;;5.63;5.13;;;14.50;99.90;;;15.35;96.46;98418.41;10428167;28;20230;-78
2023/09/26 20:32:43;;;;;;;5.63;5.30;;;14.50;99.90;;;15.26;96.34;98419.72;10422624;28;20235;-79
2023/09/26 20:37:48;;;;;;;7.13;6.53;;;14.40;99.90;;;15.22;96.72;98420.41;10427556;28;20229;-78
2023/09/26 20:42:51;;;;;;;6.47;5.88;;;14.30;99.90;;;15.18;96.84;98420.16;10422324;28;20221;-80
2023/09/26 20:47:54;;;;;;;6.68;6.18;;;14.30;99.90;;;15.11;97.07;98421.56;10429092;28;20235;-79
2023/09/26 20:52:59;;;;;;;6.95;6.47;;;14.20;99.90;;;15.04;97.49;98416.91;10425995;28;20724;-79
2023/09/26 20:58:02;;;;;;;6.85;6.35;;;14.20;99.90;;;14.97;97.61;98414.88;10425270;28;20225;-80
2023/09/26 21:03:06;;;;;;;7.28;6.68;;;14.10;99.90;;;14.86;97.35;98410.06;10423318;28;20232;-80
2023/09/26 21:08:10;;;;;;;6.68;6.00;;;14.00;99.90;;;14.75;97.47;98418.94;10432715;28;21715;-80
2023/09/26 21:13:13;;;;;;;5.97;5.45;;;13.90;99.90;;;14.75;97.08;98413.81;10427536;28;20283;-80
2023/09/26 21:18:17;;;;;;;6.97;6.38;;;13.90;99.90;;;14.64;97.64;98426.13;10438733;28;20346;-80
2023/09/26 21:23:21;;;;;;;7.75;6.88;;;13.80;99.90;;;14.51;98.91;98431.44;10433784;28;20595;-79